Nearby METAR Reports

 

KSJC - San Jose, California, USA
Distance from station: NE 9mi, 14km
Updated: Sat, 20-Apr-2024 12:53pm PDT
Clear
Clear
 Wind from NNW
Wind: NNW 12 mph, 19 km/h
Temperature: 72°F, 22°C
Dew Point: 48°F, 9°C
Humidity: 44%
Barometer: 30.09 inHg, 1019 hPa
Clouds: Clear
Visibility: 10 miles, 16 km
2024/04/20 19:53 KSJC 201953Z 34010KT 10SM CLR 22/09 A3009 RMK AO2 SLP188 T02170094
KPAO - Palo Alto, California, USA
Distance from station: NNW 14mi, 23km
Updated: Sat, 20-Apr-2024 12:47pm PDT
Clear
Clear
 Wind from N
Wind: N 9 mph, 15 km/h
Temperature: 63°F, 17°C
Dew Point: 52°F, 11°C
Humidity: 68%
Barometer: 30.11 inHg, 1019.6 hPa
Clouds: Clear
Visibility: 10 miles, 16 km
2024/04/20 19:47 KPAO 201947Z 35008KT 10SM SKC 17/11 A3011
 
KRHV - San Jose/Reid, California, USA
Distance from station: ENE 12mi, 19km
Updated: Sat, 20-Apr-2024 12:47pm PDT
Clear
Clear
 Wind from NW
Wind: NW 8 mph, 13 km/h
Temperature: 72°F, 22°C
Dew Point: 46°F, 8°C
Humidity: 41%
Barometer: 30.10 inHg, 1019.3 hPa
Clouds: Clear
Visibility: 10 miles, 16 km
2024/04/20 19:47 KRHV 201947Z 32007KT 10SM SKC 22/08 A3010
KOAK - Oakland, California, USA
Distance from station: NNW 31mi, 50km
Updated: Sat, 20-Apr-2024 12:53pm PDT
Few Clouds
Few Clouds
 Wind from W
Wind: W 9 mph, 15 km/h
Temperature: 63°F, 17°C
Dew Point: 50°F, 10°C
Humidity: 64%
Barometer: 30.12 inHg, 1020 hPa
Clouds: Few Clouds
Visibility: 10 miles, 16 km
Cloud details: Few Clouds 1800 ft
2024/04/20 19:53 KOAK 201953Z 27008KT 10SM FEW018 17/10 A3012 RMK AO2 SLP200 T01720100
 
KSQL - San Carlos Airpo, California, USA
Distance from station: NW 21mi, 34km
Updated: Sat, 20-Apr-2024 12:50pm PDT
Clear
Clear
 Wind from N
Wind: N 10 mph, 17 km/h
Temperature: 64°F, 18°C
Dew Point: 52°F, 11°C
Humidity: 64%
Barometer: 30.12 inHg, 1020 hPa
Clouds: Clear
Visibility: 10 miles, 16 km
2024/04/20 19:50 KSQL 201950Z 36009KT 10SM CLR 18/11 A3012
KSFO - San Francisco, California, USA
Distance from station: NW 30mi, 49km
Updated: Sat, 20-Apr-2024 12:56pm PDT
Few Clouds
Few Clouds
 Wind from NW
Wind: NW 15 mph, 24 km/h, Gust: 25 mph, 41 km/h
Temperature: 64°F, 18°C
Dew Point: 48°F, 9°C
Humidity: 56%
Barometer: 30.10 inHg, 1019.3 hPa
Clouds: Few Clouds
Visibility: 10 miles, 16 km
Cloud details: Few Clouds 2600 ft
2024/04/20 19:56 KSFO 201956Z 31013G22KT 10SM FEW026 18/09 A3010 RMK AO2 SLP193 T01780089
 
KE16 - San Martin, California, USA
Distance from station: ESE 27mi, 43km
Updated: Sat, 20-Apr-2024 1:15pm PDT
Clear
Clear
 Wind from NW
Wind: NW 5 mph, 7 km/h
Temperature: 70°F, 21°C
Dew Point: 50°F, 10°C
Humidity: 50%
Barometer: 30.09 inHg, 1019 hPa
Clouds: Clear
Visibility: 9 miles, 14 km
2024/04/20 20:15 KE16 202015Z AUTO 31004KT 9SM CLR 21/10 A3009 RMK AO2 PWINO PNO
KWVI - Watsonville, California, USA
Distance from station: SSE 27mi, 44km
Updated: Sat, 20-Apr-2024 12:53pm PDT
Clear
Clear
 Wind from W
Wind: W 6 mph, 9 km/h
Temperature: 63°F, 17°C
Dew Point: 55°F, 13°C
Humidity: 77%
Barometer: 30.10 inHg, 1019.3 hPa
Clouds: Clear
Visibility: 10 miles, 16 km
2024/04/20 19:53 KWVI 201953Z AUTO 26005KT 10SM CLR 17/13 A3010 RMK AO2 SLP193 T01720128
 
KHAF - Half Moon Bay, California, USA
Distance from station: WNW 31mi, 50km
Updated: Sat, 20-Apr-2024 1:35pm PDT
Clear
Clear
 Wind from NW
Wind: NW 12 mph, 19 km/h
Temperature: 59°F, 15°C
Dew Point: 55°F, 13°C
Humidity: 88%
Barometer: 30.13 inHg, 1020.3 hPa
Clouds: Clear
Visibility: 7 miles, 11 km
2024/04/20 20:35 KHAF 202035Z AUTO 31010KT 7SM CLR 15/13 A3013 RMK AO2
KHWD - Hayward, California, USA
Distance from station: N 28mi, 44km
Updated: Sat, 20-Apr-2024 12:54pm PDT
Clear
Clear
 Wind from W
Wind: W 9 mph, 15 km/h
Temperature: 66°F, 19°C
Dew Point: 48°F, 9°C
Humidity: 52%
Barometer: 30.10 inHg, 1019.3 hPa
Clouds: Clear
Visibility: 10 miles, 16 km
2024/04/20 19:54 KHWD 201954Z 28008KT 10SM CLR 19/09 A3010 RMK AO2 SLP203 T01890094
 
KLVK - Livermore, California, USA
Distance from station: NNE 31mi, 51km
Updated: Sat, 20-Apr-2024 12:53pm PDT
Clear
Clear
 
Temperature: 72°F, 22°C
Dew Point: 54°F, 12°C
Humidity: 53%
Barometer: 30.07 inHg, 1018.3 hPa
Clouds: Clear
Visibility: 10 miles, 16 km
2024/04/20 19:53 KLVK 201953Z 10SM CLR 22/12 A3007 RMK AO2 SLP180 T02170117